Time;durP1;ratioP1;P1;durP2;ratioP2;P2;SDS_P1;SDS_P2;PMS_P1;PMS_P2;Temp;Humidity;BMP_temperature;BMP_pressure;BME280_temperature;BME280_humidity;BME280_pressure;Samples;Min_cycle;Max_cycle;Signal;HPM_P1;HPM_P2
2023/08/23 00:01:27;;;;;;;6.47;3.45;;;16.90;99.90;;;;;;5002180;28;20026;-69
2023/08/23 00:03:53;;;;;;;5.38;3.65;;;16.90;99.90;;;;;;5002560;28;20029;-69
2023/08/23 00:06:18;;;;;;;5.72;3.35;;;16.90;99.90;;;;;;5007479;28;20480;-69
2023/08/23 00:08:44;;;;;;;10.18;3.67;;;16.90;99.90;;;;;;5007610;28;20072;-69
2023/08/23 00:11:09;;;;;;;5.80;3.60;;;16.90;99.90;;;;;;5004425;28;20026;-70
2023/08/23 00:13:35;;;;;;;11.68;4.45;;;16.90;99.90;;;;;;5003330;28;20102;-69
2023/08/23 00:16:01;;;;;;;6.13;3.10;;;16.80;99.90;;;;;;5007801;28;20038;-69
2023/08/23 00:18:26;;;;;;;11.45;3.58;;;16.90;99.90;;;;;;5001379;28;20041;-69
2023/08/23 00:20:52;;;;;;;7.55;4.05;;;16.80;99.90;;;;;;5002557;28;20042;-69
2023/08/23 00:23:17;;;;;;;6.55;4.30;;;16.80;99.90;;;;;;5005436;28;20637;-69
2023/08/23 00:25:43;;;;;;;8.23;4.13;;;16.80;99.90;;;;;;5004440;28;20026;-69
2023/08/23 00:28:08;;;;;;;7.25;3.75;;;16.70;99.90;;;;;;5003193;28;20607;-69
2023/08/23 00:30:34;;;;;;;5.68;3.25;;;16.70;99.90;;;;;;5000152;28;20057;-69
2023/08/23 00:33:01;;;;;;;8.25;3.67;;;16.60;99.90;;;;;;4986006;28;20045;-69
2023/08/23 00:35:27;;;;;;;9.77;3.00;;;16.60;99.90;;;;;;4997159;28;20070;-70
2023/08/23 00:37:52;;;;;;;7.00;3.45;;;16.50;99.90;;;;;;5002299;28;20062;-69
2023/08/23 00:40:20;;;;;;;7.53;3.92;;;16.50;99.90;;;;;;4996933;28;20959;-69
2023/08/23 00:42:45;;;;;;;5.88;3.78;;;16.40;99.90;;;;;;5002253;28;20061;-68
2023/08/23 00:45:11;;;;;;;7.65;3.35;;;16.30;99.90;;;;;;4998785;28;20153;-69
2023/08/23 00:47:37;;;;;;;7.65;4.20;;;16.30;99.90;;;;;;4998007;28;20038;-69
2023/08/23 00:50:03;;;;;;;9.77;4.53;;;16.20;99.90;;;;;;4994163;28;20579;-69
2023/08/23 00:52:29;;;;;;;8.02;4.00;;;16.10;99.90;;;;;;4971684;28;20057;-68
2023/08/23 00:54:57;;;;;;;10.38;3.72;;;16.10;99.90;;;;;;4996025;28;20026;-68
2023/08/23 00:57:24;;;;;;;4.90;3.38;;;16.10;99.90;;;;;;5001592;28;20771;-68
2023/08/23 00:59:49;;;;;;;5.30;3.83;;;16.00;99.90;;;;;;5002376;28;20060;-68
2023/08/23 01:02:15;;;;;;;6.15;3.65;;;15.90;99.90;;;;;;5001559;28;20031;-68
2023/08/23 01:04:40;;;;;;;7.75;4.57;;;15.90;99.90;;;;;;5000002;28;20563;-68
2023/08/23 01:07:14;;;;;;;6.60;4.18;;;15.80;99.90;;;;;;4998880;28;20084;-68
2023/08/23 01:09:57;;;;;;;6.82;4.68;;;15.80;99.90;;;;;;4998312;28;20026;-68
2023/08/23 01:12:35;;;;;;;9.82;4.78;;;15.70;99.90;;;;;;5001509;28;20042;-68
2023/08/23 01:15:14;;;;;;;5.63;4.30;;;15.70;99.90;;;;;;4996511;28;20033;-68
2023/08/23 01:17:42;;;;;;;7.18;4.38;;;15.70;99.90;;;;;;5002619;28;20034;-69
2023/08/23 01:20:12;;;;;;;7.57;4.35;;;15.70;99.90;;;;;;5003210;28;20026;-68
2023/08/23 01:22:41;;;;;;;12.43;4.57;;;15.60;99.90;;;;;;5002609;28;20033;-68
2023/08/23 01:25:08;;;;;;;8.77;5.60;;;15.60;99.90;;;;;;4998493;28;20129;-68
2023/08/23 01:27:34;;;;;;;12.80;4.88;;;15.60;99.90;;;;;;5001013;28;20492;-68
2023/08/23 01:30:00;;;;;;;8.23;4.75;;;15.50;99.90;;;;;;4994555;28;20033;-68
2023/08/23 01:32:52;;;;;;;8.32;5.05;;;15.50;99.90;;;;;;4997987;28;20492;-68
2023/08/23 01:35:31;;;;;;;15.73;5.68;;;15.40;99.90;;;;;;5003399;28;20094;-68
2023/08/23 01:37:59;;;;;;;9.48;5.10;;;15.40;99.90;;;;;;5004411;28;20108;-68
2023/08/23 01:40:25;;;;;;;10.98;4.78;;;15.40;99.90;;;;;;5001200;28;20045;-68
2023/08/23 01:42:52;;;;;;;9.85;5.25;;;15.30;99.90;;;;;;4999620;28;20046;-68
2023/08/23 01:45:17;;;;;;;8.77;5.43;;;15.30;99.90;;;;;;4999477;28;20120;-69
2023/08/23 01:47:43;;;;;;;6.95;4.85;;;15.20;99.90;;;;;;5002947;28;21372;-69
2023/08/23 01:50:09;;;;;;;12.55;4.57;;;15.20;99.90;;;;;;4996938;28;20099;-68
2023/08/23 01:52:35;;;;;;;10.52;5.07;;;15.10;99.90;;;;;;4965946;28;20049;-68
2023/08/23 01:55:00;;;;;;;6.82;4.78;;;15.10;99.90;;;;;;4996698;28;20538;-69
2023/08/23 01:57:26;;;;;;;11.45;5.18;;;15.10;99.90;;;;;;4997079;28;20494;-68
2023/08/23 01:59:52;;;;;;;7.38;4.53;;;15.10;99.90;;;;;;4994743;28;20038;-69
2023/08/23 02:02:18;;;;;;;11.02;4.80;;;15.10;99.90;;;;;;5003486;28;20041;-69
2023/08/23 02:04:43;;;;;;;9.77;4.65;;;15.00;99.90;;;;;;4996743;28;20038;-68
2023/08/23 02:07:09;;;;;;;8.30;4.45;;;15.00;99.90;;;;;;5002299;28;20147;-69
2023/08/23 02:09:34;;;;;;;8.80;4.78;;;14.90;99.90;;;;;;4995881;28;20038;-68
2023/08/23 02:12:00;;;;;;;7.20;4.82;;;14.90;99.90;;;;;;4990579;28;20907;-68
2023/08/23 02:14:26;;;;;;;8.50;4.97;;;14.90;99.90;;;;;;4972386;28;20062;-68
2023/08/23 02:16:52;;;;;;;14.38;5.70;;;14.90;99.90;;;;;;4980270;28;20038;-68
2023/08/23 02:19:18;;;;;;;7.47;5.43;;;14.90;99.90;;;;;;4975392;28;20034;-68
2023/08/23 02:21:43;;;;;;;12.07;5.55;;;14.90;99.90;;;;;;4963881;28;21581;-68
2023/08/23 02:24:09;;;;;;;9.52;6.38;;;14.90;99.90;;;;;;4973113;28;21040;-68
2023/08/23 02:26:37;;;;;;;11.75;6.20;;;14.80;99.90;;;;;;4970901;28;20087;-68
2023/08/23 02:29:03;;;;;;;11.98;7.10;;;14.80;99.90;;;;;;4972160;28;20100;-68
2023/08/23 02:31:30;;;;;;;11.82;7.68;;;14.80;99.90;;;;;;4974607;28;20029;-67
2023/08/23 02:33:55;;;;;;;21.58;7.32;;;14.70;99.90;;;;;;4964325;28;20031;-68
2023/08/23 02:36:21;;;;;;;12.68;7.68;;;14.70;99.90;;;;;;4963605;28;20060;-68
2023/08/23 02:38:46;;;;;;;14.38;9.20;;;14.70;99.90;;;;;;4986356;28;20078;-68
2023/08/23 02:41:12;;;;;;;15.07;8.73;;;14.70;99.90;;;;;;4970614;28;20130;-68
2023/08/23 02:43:38;;;;;;;13.25;7.45;;;14.80;99.90;;;;;;4980695;28;20121;-68
2023/08/23 02:46:03;;;;;;;13.43;7.97;;;14.70;99.90;;;;;;4971980;28;21293;-68
2023/08/23 02:48:29;;;;;;;12.43;7.47;;;14.70;99.90;;;;;;4972840;28;20735;-68
2023/08/23 02:50:55;;;;;;;10.90;7.95;;;14.70;99.90;;;;;;4963478;28;20037;-68
2023/08/23 02:53:20;;;;;;;15.30;7.90;;;14.70;99.90;;;;;;4970522;28;20049;-68
2023/08/23 02:55:46;;;;;;;14.98;9.15;;;14.80;99.90;;;;;;4973284;28;20515;-69
2023/08/23 02:58:11;;;;;;;15.73;8.63;;;14.80;99.90;;;;;;4968860;28;20199;-69
2023/08/23 03:00:37;;;;;;;16.05;8.70;;;14.80;99.90;;;;;;4965682;28;20399;-70
2023/08/23 03:03:03;;;;;;;16.20;9.23;;;14.90;99.90;;;;;;4967222;28;20085;-68
2023/08/23 03:05:28;;;;;;;19.27;10.30;;;14.90;99.90;;;;;;4966547;28;20068;-68
2023/08/23 03:07:54;;;;;;;11.98;8.60;;;14.90;99.90;;;;;;4965817;28;20041;-68
2023/08/23 03:10:20;;;;;;;12.50;7.75;;;14.90;99.90;;;;;;4973910;28;20117;-68
2023/08/23 03:12:45;;;;;;;13.38;9.00;;;14.80;99.90;;;;;;4959511;28;20066;-68
2023/08/23 03:15:11;;;;;;;13.70;8.30;;;14.80;99.90;;;;;;4968329;28;20616;-68
2023/08/23 03:17:37;;;;;;;18.52;8.25;;;14.80;99.90;;;;;;4973590;28;20165;-67
2023/08/23 03:20:02;;;;;;;21.27;7.85;;;14.80;99.90;;;;;;4970050;28;20031;-68
2023/08/23 03:22:28;;;;;;;13.85;7.03;;;14.70;99.90;;;;;;4970346;28;20034;-68
2023/08/23 03:24:54;;;;;;;11.88;6.63;;;14.70;99.90;;;;;;4970964;28;20780;-68
2023/08/23 03:27:20;;;;;;;10.88;6.60;;;14.70;99.90;;;;;;4971595;28;21052;-68
2023/08/23 03:29:46;;;;;;;11.98;7.40;;;14.70;99.90;;;;;;4973396;28;20058;-68
2023/08/23 03:32:11;;;;;;;14.10;7.50;;;14.70;99.90;;;;;;4973698;28;20030;-68
2023/08/23 03:34:37;;;;;;;12.93;7.47;;;14.70;99.90;;;;;;4968428;28;20042;-68
2023/08/23 03:37:02;;;;;;;12.32;6.85;;;14.60;99.90;;;;;;4967445;28;20027;-68
2023/08/23 03:39:28;;;;;;;12.45;6.85;;;14.60;99.90;;;;;;4967303;28;20035;-68
2023/08/23 03:41:54;;;;;;;12.65;6.93;;;14.60;99.90;;;;;;4969271;28;20105;-68
2023/08/23 03:44:19;;;;;;;9.30;6.20;;;14.60;99.90;;;;;;4968533;28;20047;-68
2023/08/23 03:46:45;;;;;;;12.82;6.53;;;14.60;99.90;;;;;;4973084;28;20100;-68
2023/08/23 03:49:10;;;;;;;11.50;6.32;;;14.60;99.90;;;;;;4975730;28;20124;-67
2023/08/23 03:51:36;;;;;;;13.00;7.20;;;14.50;99.90;;;;;;4944769;28;20050;-68
2023/08/23 03:54:01;;;;;;;11.95;7.05;;;14.40;99.90;;;;;;4969305;28;21033;-68
2023/08/23 03:56:27;;;;;;;15.98;7.25;;;14.40;99.90;;;;;;4983885;28;20643;-68
2023/08/23 03:58:53;;;;;;;11.75;7.85;;;14.30;99.90;;;;;;4969206;28;20087;-68
2023/08/23 04:01:19;;;;;;;12.00;7.75;;;14.30;99.90;;;;;;4967679;28;20030;-68
2023/08/23 04:03:45;;;;;;;12.38;7.03;;;14.30;99.90;;;;;;4972308;28;20424;-68
2023/08/23 04:06:10;;;;;;;11.45;7.90;;;14.30;99.90;;;;;;4975673;28;20149;-67
2023/08/23 04:08:36;;;;;;;17.60;8.25;;;14.30;99.90;;;;;;4968564;28;20113;-67
2023/08/23 04:11:01;;;;;;;12.02;7.50;;;14.20;99.90;;;;;;4982848;28;20048;-68
2023/08/23 04:13:27;;;;;;;13.13;6.85;;;14.20;99.90;;;;;;4977117;28;20096;-68
2023/08/23 04:15:53;;;;;;;11.52;7.20;;;14.20;99.90;;;;;;4969294;28;20041;-69
2023/08/23 04:18:18;;;;;;;10.18;7.35;;;14.10;99.90;;;;;;4972604;28;20029;-68
2023/08/23 04:20:44;;;;;;;13.77;6.72;;;14.10;99.90;;;;;;4972274;28;20026;-68
2023/08/23 04:23:09;;;;;;;16.20;6.78;;;14.20;99.90;;;;;;4969387;28;20208;-68
2023/08/23 04:25:35;;;;;;;12.50;6.82;;;14.10;99.90;;;;;;4969838;28;20327;-68
2023/08/23 04:28:00;;;;;;;14.52;8.15;;;14.10;99.90;;;;;;4977052;28;20038;-68
2023/08/23 04:30:26;;;;;;;9.70;7.30;;;14.10;99.90;;;;;;4974722;28;20034;-67
2023/08/23 04:32:52;;;;;;;14.13;8.55;;;14.10;99.90;;;;;;4984750;28;20037;-68
2023/08/23 04:35:17;;;;;;;12.98;8.75;;;14.10;99.90;;;;;;4965851;28;20026;-68
2023/08/23 04:37:43;;;;;;;25.00;9.45;;;14.10;99.90;;;;;;4975379;28;20042;-68
2023/08/23 04:40:09;;;;;;;21.17;9.18;;;14.10;99.90;;;;;;4968838;28;20066;-68
2023/08/23 04:42:36;;;;;;;12.00;8.40;;;14.10;99.90;;;;;;4977608;28;20117;-68
2023/08/23 04:45:02;;;;;;;16.27;8.18;;;14.20;99.90;;;;;;4971702;28;20038;-67
2023/08/23 04:47:29;;;;;;;11.88;7.82;;;14.20;99.90;;;;;;4969962;28;20038;-68
2023/08/23 04:49:55;;;;;;;12.02;7.63;;;14.30;99.90;;;;;;4969504;28;20041;-68
2023/08/23 04:52:20;;;;;;;17.17;8.70;;;14.30;99.90;;;;;;4941945;28;20050;-68
2023/08/23 04:54:46;;;;;;;14.68;7.63;;;14.30;99.90;;;;;;4974269;28;20030;-67
2023/08/23 04:57:12;;;;;;;15.23;6.80;;;14.30;99.90;;;;;;4976727;28;20058;-68
2023/08/23 04:59:38;;;;;;;11.75;7.50;;;14.40;99.90;;;;;;4969837;28;20117;-69
2023/08/23 05:02:03;;;;;;;14.15;7.68;;;14.40;99.90;;;;;;4978889;28;20030;-68
2023/08/23 05:04:29;;;;;;;9.30;7.22;;;14.40;99.90;;;;;;4974044;28;20092;-68
2023/08/23 05:06:54;;;;;;;14.02;7.40;;;14.40;99.90;;;;;;4975182;28;20784;-68
2023/08/23 05:09:20;;;;;;;13.65;7.32;;;14.50;99.90;;;;;;4978396;28;20704;-69
2023/08/23 05:11:45;;;;;;;11.90;7.45;;;14.50;99.90;;;;;;4973323;28;20227;-67
2023/08/23 05:14:11;;;;;;;13.88;6.90;;;14.60;99.90;;;;;;4975668;28;20022;-68
2023/08/23 05:16:37;;;;;;;10.02;6.72;;;14.70;99.90;;;;;;4978521;28;21085;-68
2023/08/23 05:19:03;;;;;;;10.27;6.97;;;14.80;99.90;;;;;;4976629;28;20177;-68
2023/08/23 05:21:28;;;;;;;14.00;7.18;;;14.90;99.90;;;;;;5004521;28;20400;-68
2023/08/23 05:23:54;;;;;;;12.48;6.72;;;15.00;99.90;;;;;;4999325;28;20037;-70
2023/08/23 05:26:19;;;;;;;9.90;6.75;;;15.10;99.90;;;;;;5017312;28;20396;-68
2023/08/23 05:28:45;;;;;;;10.57;6.53;;;15.20;99.90;;;;;;5006215;28;20014;-68
2023/08/23 05:31:11;;;;;;;10.35;5.90;;;15.40;99.90;;;;;;5000378;28;20026;-68
2023/08/23 05:33:39;;;;;;;10.82;6.18;;;15.40;99.90;;;;;;5000352;28;20065;-69
2023/08/23 05:36:04;;;;;;;9.93;5.30;;;15.60;99.90;;;;;;5003518;28;20388;-68
2023/08/23 05:38:30;;;;;;;13.82;5.75;;;15.80;99.90;;;;;;5003022;28;20034;-68
2023/08/23 05:40:56;;;;;;;14.25;6.22;;;16.00;99.90;;;;;;5006270;28;20069;-68
2023/08/23 05:43:22;;;;;;;11.80;5.03;;;16.40;99.90;;;;;;5005251;28;20068;-69
2023/08/23 05:45:50;;;;;;;6.22;4.40;;;16.50;99.90;;;;;;5000688;28;20680;-68
2023/08/23 05:48:16;;;;;;;10.63;4.93;;;16.80;99.90;;;;;;4994525;28;20045;-68
2023/08/23 05:50:41;;;;;;;10.30;3.95;;;17.00;99.90;;;;;;4993493;28;20060;-69
2023/08/23 05:53:10;;;;;;;12.55;4.47;;;17.10;99.90;;;;;;4975273;28;20046;-68
2023/08/23 05:55:36;;;;;;;7.85;3.90;;;17.40;99.90;;;;;;5003192;28;20030;-69
2023/08/23 05:58:02;;;;;;;5.78;3.60;;;17.60;99.90;;;;;;4997053;28;20491;-68
2023/08/23 06:00:28;;;;;;;6.32;3.20;;;17.80;99.90;;;;;;4994750;28;20037;-68
2023/08/23 06:02:53;;;;;;;7.40;4.00;;;18.10;99.90;;;;;;4995532;28;20529;-67
2023/08/23 06:05:19;;;;;;;7.63;3.53;;;18.30;99.90;;;;;;4995612;28;20669;-70
2023/08/23 06:07:45;;;;;;;8.45;3.08;;;18.70;99.90;;;;;;4995540;28;20148;-67
2023/08/23 06:10:11;;;;;;;6.53;3.22;;;18.90;99.90;;;;;;5002283;28;20045;-67
2023/08/23 06:12:36;;;;;;;7.43;3.28;;;19.70;99.90;;;;;;5000602;28;20030;-68
2023/08/23 06:15:04;;;;;;;7.00;2.78;;;20.60;99.90;;;;;;5000344;28;20057;-68
2023/08/23 06:17:30;;;;;;;6.13;3.08;;;20.80;99.90;;;;;;4999898;28;20032;-68
2023/08/23 06:19:55;;;;;;;6.95;3.20;;;21.60;99.90;;;;;;5002732;28;20057;-68
2023/08/23 06:22:22;;;;;;;8.23;3.70;;;21.40;99.90;;;;;;4996146;28;20037;-67
2023/08/23 06:24:47;;;;;;;5.70;2.97;;;21.80;99.90;;;;;;5003843;28;20045;-67
2023/08/23 06:27:13;;;;;;;4.20;2.58;;;21.80;99.90;;;;;;5003655;28;20033;-68
2023/08/23 06:29:40;;;;;;;5.78;3.13;;;21.80;99.90;;;;;;5001921;28;20034;-68
2023/08/23 06:32:07;;;;;;;6.55;2.88;;;22.10;99.90;;;;;;4994091;28;20525;-68
2023/08/23 06:34:33;;;;;;;6.20;3.05;;;23.30;99.90;;;;;;4997279;28;20507;-68
2023/08/23 06:36:59;;;;;;;4.50;2.65;;;24.70;99.50;;;;;;5019742;28;20037;-68
2023/08/23 06:39:24;;;;;;;11.00;3.42;;;25.20;98.40;;;;;;5002601;28;20407;-68
2023/08/23 06:41:50;;;;;;;5.53;2.50;;;24.70;98.90;;;;;;5000948;28;20466;-68
2023/08/23 06:44:16;;;;;;;6.40;2.80;;;24.90;98.00;;;;;;4999904;28;20026;-68
2023/08/23 06:46:42;;;;;;;4.47;2.63;;;24.40;99.30;;;;;;5003284;28;20030;-68
2023/08/23 06:49:07;;;;;;;8.60;2.65;;;25.10;98.60;;;;;;4996768;28;20036;-68
2023/08/23 06:51:33;;;;;;;6.13;3.38;;;25.50;97.80;;;;;;4972919;28;20139;-68
2023/08/23 06:53:59;;;;;;;8.38;3.05;;;25.60;96.20;;;;;;5000797;28;20427;-68
2023/08/23 06:56:25;;;;;;;3.67;2.47;;;25.90;95.80;;;;;;5000849;28;20741;-68
2023/08/23 06:58:51;;;;;;;8.20;3.17;;;26.00;96.30;;;;;;4999725;28;20054;-68
2023/08/23 07:01:17;;;;;;;4.53;3.00;;;26.30;95.90;;;;;;4995326;28;20148;-68
2023/08/23 07:03:43;;;;;;;7.00;3.40;;;27.20;95.20;;;;;;5002714;28;20034;-69
2023/08/23 07:06:13;;;;;;;4.82;2.80;;;27.40;94.80;;;;;;5001635;28;20037;-69
2023/08/23 07:08:42;;;;;;;6.53;3.90;;;27.90;93.30;;;;;;5002293;28;20061;-67
2023/08/23 07:11:08;;;;;;;6.63;4.13;;;27.80;92.90;;;;;;5000325;28;20386;-68
2023/08/23 07:13:36;;;;;;;5.97;3.03;;;28.00;92.10;;;;;;5004285;28;20032;-68
2023/08/23 07:16:02;;;;;;;8.45;2.92;;;28.50;92.00;;;;;;4991444;28;20038;-68
2023/08/23 07:18:29;;;;;;;6.78;2.88;;;28.90;90.60;;;;;;5003563;28;21113;-67
2023/08/23 07:20:54;;;;;;;4.28;2.63;;;28.70;91.00;;;;;;4998496;28;20034;-68
2023/08/23 07:23:20;;;;;;;4.90;3.28;;;29.10;90.00;;;;;;4987634;28;20035;-68
2023/08/23 07:25:46;;;;;;;5.85;3.33;;;29.50;90.00;;;;;;5001463;28;20114;-69
2023/08/23 07:28:11;;;;;;;4.68;2.60;;;29.70;90.40;;;;;;5021957;28;20512;-69
2023/08/23 07:30:38;;;;;;;10.68;4.22;;;29.70;88.90;;;;;;5006371;28;20243;-69
2023/08/23 07:33:03;;;;;;;6.88;3.40;;;30.50;86.00;;;;;;5007340;28;20030;-68
2023/08/23 07:35:29;;;;;;;7.43;3.45;;;30.00;86.70;;;;;;5007960;28;20048;-69
2023/08/23 07:37:55;;;;;;;6.32;3.10;;;30.40;84.30;;;;;;5007268;28;20029;-68
2023/08/23 07:40:20;;;;;;;5.47;3.35;;;31.10;83.30;;;;;;4998195;28;20376;-68
2023/08/23 07:42:46;;;;;;;5.50;3.28;;;30.60;82.70;;;;;;5007311;28;20152;-69
2023/08/23 07:45:12;;;;;;;5.90;3.63;;;30.30;85.40;;;;;;4995436;28;20029;-68
2023/08/23 07:47:37;;;;;;;8.95;3.53;;;30.30;85.00;;;;;;5001972;28;20088;-69
2023/08/23 07:50:03;;;;;;;8.13;3.28;;;30.30;85.50;;;;;;5006097;28;20033;-69
2023/08/23 07:52:29;;;;;;;4.30;2.95;;;31.90;82.80;;;;;;4974167;28;20046;-68
2023/08/23 07:54:55;;;;;;;7.63;3.03;;;32.20;80.40;;;;;;4998226;28;20037;-68
2023/08/23 07:57:20;;;;;;;5.78;3.13;;;32.30;80.40;;;;;;4989516;28;20411;-68
2023/08/23 07:59:46;;;;;;;7.03;3.03;;;32.60;78.00;;;;;;4996169;28;20029;-68
2023/08/23 08:02:12;;;;;;;10.20;3.33;;;32.10;79.30;;;;;;5001030;28;20038;-68
2023/08/23 08:04:37;;;;;;;7.05;3.85;;;33.20;77.40;;;;;;5007615;28;20049;-69
2023/08/23 08:07:03;;;;;;;7.30;3.60;;;32.60;78.40;;;;;;5005324;28;20487;-68
2023/08/23 08:09:29;;;;;;;9.30;3.63;;;32.10;78.70;;;;;;5000356;28;20034;-69
2023/08/23 08:11:55;;;;;;;8.70;4.05;;;31.70;79.20;;;;;;4992410;28;20036;-68
2023/08/23 08:14:21;;;;;;;5.40;3.00;;;32.60;78.50;;;;;;4992090;28;20399;-68
2023/08/23 08:16:46;;;;;;;6.45;3.80;;;32.40;79.00;;;;;;5006295;28;20034;-69
2023/08/23 08:19:12;;;;;;;7.55;3.08;;;32.60;78.20;;;;;;4998745;28;20034;-68
2023/08/23 08:21:37;;;;;;;8.38;3.72;;;32.40;78.70;;;;;;5003138;28;20053;-68
2023/08/23 08:24:03;;;;;;;8.88;4.07;;;32.20;77.90;;;;;;5001937;28;20491;-69
2023/08/23 08:26:29;;;;;;;12.82;4.05;;;31.90;78.90;;;;;;5003153;28;20050;-68
2023/08/23 08:28:54;;;;;;;11.15;4.30;;;31.70;79.70;;;;;;5002947;28;20026;-68
2023/08/23 08:31:20;;;;;;;6.45;3.00;;;31.60;79.60;;;;;;5003635;28;20038;-69
2023/08/23 08:33:46;;;;;;;10.35;3.83;;;32.10;79.30;;;;;;5005333;28;20034;-67
2023/08/23 08:36:12;;;;;;;7.78;3.35;;;32.60;76.90;;;;;;5006900;28;20125;-69
2023/08/23 08:38:38;;;;;;;6.47;3.13;;;32.90;74.50;;;;;;5016243;28;20121;-68
2023/08/23 08:41:04;;;;;;;8.18;3.80;;;32.60;74.60;;;;;;4997428;28;20057;-68
2023/08/23 08:43:31;;;;;;;5.70;2.53;;;32.60;76.10;;;;;;5001892;28;21288;-69
2023/08/23 08:45:57;;;;;;;5.97;2.28;;;33.10;76.20;;;;;;4997116;28;20049;-68
2023/08/23 08:48:23;;;;;;;5.47;2.03;;;33.20;73.10;;;;;;5001675;28;20026;-69
2023/08/23 08:50:48;;;;;;;6.97;2.05;;;32.80;72.60;;;;;;4996673;28;20144;-67
2023/08/23 08:53:15;;;;;;;6.38;2.20;;;32.40;75.00;;;;;;4971620;28;20056;-69
2023/08/23 08:55:42;;;;;;;3.50;1.80;;;33.10;73.40;;;;;;5005689;28;20562;-69
2023/08/23 08:58:10;;;;;;;3.45;1.98;;;33.40;72.40;;;;;;4998974;28;20075;-70
2023/08/23 09:00:36;;;;;;;3.78;2.00;;;32.70;73.20;;;;;;4997213;28;20486;-69
2023/08/23 09:03:02;;;;;;;4.50;1.75;;;32.60;73.60;;;;;;5004152;28;20070;-69
2023/08/23 09:05:28;;;;;;;5.25;1.77;;;32.10;73.70;;;;;;5002427;28;21128;-68
2023/08/23 09:07:56;;;;;;;3.85;1.60;;;31.90;74.00;;;;;;5003491;28;20040;-68
2023/08/23 09:10:22;;;;;;;5.45;2.08;;;31.90;73.60;;;;;;4997676;28;20080;-69
2023/08/23 09:12:48;;;;;;;6.13;1.95;;;32.40;72.60;;;;;;5001392;28;20415;-69
2023/08/23 09:15:19;;;;;;;4.07;1.90;;;33.30;74.40;;;;;;5001421;28;20022;-69
2023/08/23 09:17:45;;;;;;;5.70;1.85;;;33.80;70.30;;;;;;5003119;28;20069;-69
2023/08/23 09:20:10;;;;;;;5.72;2.13;;;33.40;69.30;;;;;;5002916;28;20527;-69
2023/08/23 09:22:37;;;;;;;4.05;1.80;;;34.10;70.40;;;;;;5001159;28;20030;-69
2023/08/23 09:25:03;;;;;;;3.22;1.95;;;33.80;69.40;;;;;;5005232;28;20041;-69
2023/08/23 09:27:29;;;;;;;4.93;1.83;;;34.10;68.80;;;;;;5003170;28;20045;-69
2023/08/23 09:30:01;;;;;;;3.35;1.63;;;34.10;70.50;;;;;;4996700;28;20402;-68
2023/08/23 09:32:27;;;;;;;;;;;34.10;67.90;;;;;;5001035;28;20068;-67
2023/08/23 09:34:52;;;;;;;7.03;1.60;;;33.50;70.30;;;;;;5002172;28;19945;-69
2023/08/23 09:37:18;;;;;;;6.60;1.50;;;33.80;69.80;;;;;;5002459;28;20030;-69
2023/08/23 09:39:44;;;;;;;6.65;1.88;;;33.50;69.90;;;;;;4996853;28;20452;-69
2023/08/23 09:42:14;;;;;;;4.65;1.80;;;33.20;71.00;;;;;;4996828;28;20814;-69
2023/08/23 09:44:41;;;;;;;3.67;1.92;;;32.80;71.70;;;;;;4998031;28;20696;-69
2023/08/23 09:47:15;;;;;;;6.55;1.67;;;32.90;73.40;;;;;;5002594;28;20037;-69
2023/08/23 09:49:46;;;;;;;5.82;1.55;;;33.20;68.70;;;;;;5001291;28;20061;-69
2023/08/23 09:52:12;;;;;;;2.17;1.27;;;33.10;70.00;;;;;;4967616;28;20719;-69
2023/08/23 09:54:56;;;;;;;2.35;1.33;;;33.40;69.20;;;;;;5001516;28;20041;-69
2023/08/23 09:57:23;;;;;;;5.90;1.70;;;33.00;71.10;;;;;;4991388;28;20380;-69
2023/08/23 09:59:50;;;;;;;4.22;1.52;;;32.40;70.90;;;;;;4996684;28;20040;-69
2023/08/23 10:02:17;;;;;;;9.68;1.83;;;32.90;72.50;;;;;;5000784;28;20034;-68
2023/08/23 10:04:43;;;;;;;8.57;1.85;;;32.10;70.10;;;;;;4999438;28;20037;-67
2023/08/23 10:07:15;;;;;;;5.90;1.35;;;31.70;70.80;;;;;;4997301;28;20042;-68
2023/08/23 10:09:41;;;;;;;5.25;1.50;;;31.90;72.50;;;;;;5000824;28;20026;-67
2023/08/23 10:12:10;;;;;;;5.30;1.67;;;31.60;72.00;;;;;;5004485;28;20069;-68
2023/08/23 10:14:41;;;;;;;7.78;1.80;;;31.10;74.10;;;;;;4997697;28;20411;-68
2023/08/23 10:17:09;;;;;;;2.55;1.27;;;31.00;73.30;;;;;;5002171;28;20030;-69
2023/08/23 10:19:34;;;;;;;5.65;2.03;;;30.70;75.60;;;;;;4999739;28;20029;-68
2023/08/23 10:22:00;;;;;;;7.53;2.50;;;30.50;75.00;;;;;;4998619;28;20037;-69
2023/08/23 10:24:31;;;;;;;5.32;1.90;;;30.50;74.10;;;;;;5004649;28;20041;-68
2023/08/23 10:27:03;;;;;;;4.25;1.60;;;29.80;76.40;;;;;;4992326;28;20327;-68
2023/08/23 10:29:30;;;;;;;7.30;2.10;;;29.70;77.70;;;;;;4995143;28;20040;-68
2023/08/23 10:31:57;;;;;;;3.80;2.05;;;29.90;77.40;;;;;;5001645;28;20037;-68
2023/08/23 10:34:28;;;;;;;5.22;2.90;;;29.90;75.30;;;;;;4998045;28;20042;-68
2023/08/23 10:36:55;;;;;;;5.35;1.95;;;29.70;75.30;;;;;;5001938;28;20022;-68
2023/08/23 10:39:23;;;;;;;4.28;1.58;;;29.50;77.00;;;;;;5000318;28;20559;-68
2023/08/23 10:41:55;;;;;;;5.57;1.67;;;29.60;78.80;;;;;;5001429;28;20053;-68
2023/08/23 10:44:21;;;;;;;7.13;2.10;;;29.70;76.70;;;;;;5000239;28;20040;-68
2023/08/23 10:46:50;;;;;;;8.35;2.22;;;28.90;78.00;;;;;;5002005;28;20124;-68
2023/08/23 10:49:20;;;;;;;2.42;1.42;;;28.60;79.20;;;;;;4996973;28;20112;-68
2023/08/23 10:51:46;;;;;;;5.68;1.52;;;28.50;79.20;;;;;;4971294;28;20064;-68
2023/08/23 10:54:15;;;;;;;5.90;1.45;;;28.50;79.40;;;;;;5004503;28;20030;-68
2023/08/23 10:56:41;;;;;;;4.00;1.50;;;28.70;80.40;;;;;;5003444;28;20034;-68
2023/08/23 10:59:07;;;;;;;6.05;1.25;;;28.90;80.90;;;;;;5000755;28;20077;-68
2023/08/23 11:01:34;;;;;;;4.72;1.45;;;29.20;84.60;;;;;;5016144;28;20034;-68
2023/08/23 11:04:03;;;;;;;4.30;1.70;;;28.90;80.90;;;;;;4997358;28;20105;-68
2023/08/23 11:06:28;;;;;;;4.32;1.30;;;28.90;80.00;;;;;;5000492;28;20032;-68
2023/08/23 11:08:56;;;;;;;3.42;1.30;;;28.70;78.60;;;;;;5002567;28;20026;-68
2023/08/23 11:11:21;;;;;;;4.97;1.50;;;29.20;80.10;;;;;;5004365;28;20537;-69
2023/08/23 11:13:47;;;;;;;6.18;1.27;;;29.20;78.70;;;;;;5000766;28;20042;-68
2023/08/23 11:16:13;;;;;;;10.07;1.60;;;29.20;80.40;;;;;;4998825;28;20549;-69
2023/08/23 11:18:39;;;;;;;14.57;1.90;;;29.00;77.10;;;;;;5003739;28;20040;-69
2023/08/23 11:21:05;;;;;;;3.63;1.40;;;28.80;77.60;;;;;;5002070;28;20022;-69
2023/08/23 11:23:31;;;;;;;6.38;1.45;;;28.70;79.30;;;;;;5002964;28;20697;-68
2023/08/23 11:25:57;;;;;;;5.40;1.50;;;28.50;81.40;;;;;;5005477;28;20034;-69
2023/08/23 11:28:22;;;;;;;5.05;1.35;;;28.80;79.80;;;;;;5002170;28;20084;-69
2023/08/23 11:30:48;;;;;;;2.65;1.70;;;28.90;79.00;;;;;;5001079;28;20025;-69
2023/08/23 11:33:14;;;;;;;9.15;1.58;;;28.90;79.20;;;;;;5000102;28;20069;-69
2023/08/23 11:35:40;;;;;;;3.45;1.55;;;28.80;79.40;;;;;;5003910;28;20026;-68
2023/08/23 11:38:06;;;;;;;4.28;1.60;;;28.50;79.00;;;;;;4997336;28;20088;-69
2023/08/23 11:40:34;;;;;;;7.40;1.90;;;28.60;82.90;;;;;;5004802;28;20034;-68
2023/08/23 11:43:04;;;;;;;9.63;2.30;;;28.60;82.30;;;;;;5004733;28;20030;-69
2023/08/23 11:45:37;;;;;;;5.28;2.70;;;28.20;81.50;;;;;;4999677;28;20022;-68
2023/08/23 11:48:03;;;;;;;6.22;2.45;;;28.30;78.60;;;;;;5000174;28;20034;-68
2023/08/23 11:50:29;;;;;;;8.93;3.03;;;28.30;79.50;;;;;;4999718;28;20052;-67
2023/08/23 11:52:54;;;;;;;10.77;3.47;;;28.30;75.30;;;;;;4974242;28;20042;-68
2023/08/23 11:55:25;;;;;;;6.10;3.30;;;28.40;75.70;;;;;;5017541;28;20574;-69
2023/08/23 11:57:54;;;;;;;7.28;2.70;;;28.30;75.40;;;;;;4996843;28;20491;-68
2023/08/23 12:00:21;;;;;;;4.75;3.00;;;28.30;74.80;;;;;;4992723;28;20037;-69
2023/08/23 12:02:47;;;;;;;10.10;3.53;;;28.20;76.80;;;;;;4995037;28;20041;-68
2023/08/23 12:05:14;;;;;;;4.57;2.90;;;28.20;78.60;;;;;;5000939;28;20038;-68
2023/08/23 12:07:40;;;;;;;6.18;2.97;;;28.20;78.20;;;;;;5003461;28;20121;-68
2023/08/23 12:10:11;;;;;;;7.47;2.92;;;28.20;79.70;;;;;;5002062;28;20118;-69
2023/08/23 12:12:37;;;;;;;9.07;3.13;;;28.30;80.50;;;;;;5002236;28;20606;-68
2023/08/23 12:15:03;;;;;;;7.07;2.97;;;28.30;81.30;;;;;;5011796;28;20057;-69
2023/08/23 12:17:29;;;;;;;5.95;3.35;;;28.20;81.40;;;;;;4998444;28;20057;-68
2023/08/23 12:19:55;;;;;;;7.95;2.97;;;28.10;80.20;;;;;;5000092;28;20707;-69
2023/08/23 12:22:20;;;;;;;10.07;3.05;;;28.20;78.50;;;;;;4996467;28;20100;-68
2023/08/23 12:24:46;;;;;;;7.90;3.35;;;28.20;79.60;;;;;;4998753;28;20080;-69
2023/08/23 12:27:11;;;;;;;5.10;2.80;;;28.20;80.90;;;;;;5002915;28;20037;-69
2023/08/23 12:29:38;;;;;;;5.28;3.13;;;28.20;82.70;;;;;;4998128;28;20037;-69
2023/08/23 12:32:05;;;;;;;15.52;3.47;;;28.20;78.00;;;;;;5001644;28;20154;-69
2023/08/23 12:34:31;;;;;;;5.45;2.38;;;28.10;80.90;;;;;;4998837;28;20169;-67
2023/08/23 12:36:57;;;;;;;5.50;2.35;;;27.80;80.30;;;;;;5005287;28;20026;-69
2023/08/23 12:39:22;;;;;;;7.82;2.25;;;27.70;81.50;;;;;;5001227;28;20038;-69